sensor_id;sensor_type;location;lat;lon;timestamp;pressure;altitude;pressure_sealevel;temperature;humidity
64675;BME280;51090;51.512;11.332;2023-07-30T00:01:57;98827.38;;;17.75;nan
64675;BME280;51090;51.512;11.332;2023-07-30T00:04:23;98835.09;;;17.72;nan
64675;BME280;51090;51.512;11.332;2023-07-30T00:06:49;98826.75;;;17.68;nan
64675;BME280;51090;51.512;11.332;2023-07-30T00:09:15;98831.53;;;17.66;nan
64675;BME280;51090;51.512;11.332;2023-07-30T00:11:41;98833.63;;;17.64;nan
64675;BME280;51090;51.512;11.332;2023-07-30T00:14:07;98832.84;;;17.63;nan
64675;BME280;51090;51.512;11.332;2023-07-30T00:16:33;98830.97;;;17.64;nan
64675;BME280;51090;51.512;11.332;2023-07-30T00:18:59;98834.72;;;17.63;nan
64675;BME280;51090;51.512;11.332;2023-07-30T00:21:25;98827.63;;;17.57;nan
64675;BME280;51090;51.512;11.332;2023-07-30T00:23:51;98827.31;;;17.53;nan
64675;BME280;51090;51.512;11.332;2023-07-30T00:26:18;98821.66;;;17.50;nan
64675;BME280;51090;51.512;11.332;2023-07-30T00:28:44;98819.91;;;17.44;nan
64675;BME280;51090;51.512;11.332;2023-07-30T00:31:10;98822.53;;;17.38;nan
64675;BME280;51090;51.512;11.332;2023-07-30T00:33:36;98823.25;;;17.34;nan
64675;BME280;51090;51.512;11.332;2023-07-30T00:36:02;98830.47;;;17.33;nan
64675;BME280;51090;51.512;11.332;2023-07-30T00:38:28;98821.41;;;17.34;nan
64675;BME280;51090;51.512;11.332;2023-07-30T00:40:54;98837.00;;;17.37;nan
64675;BME280;51090;51.512;11.332;2023-07-30T00:43:21;98842.94;;;17.39;nan
64675;BME280;51090;51.512;11.332;2023-07-30T00:45:47;98840.47;;;17.38;nan
64675;BME280;51090;51.512;11.332;2023-07-30T00:48:15;98831.28;;;17.34;nan
64675;BME280;51090;51.512;11.332;2023-07-30T00:50:42;98827.00;;;17.33;nan
64675;BME280;51090;51.512;11.332;2023-07-30T00:53:10;98834.22;;;17.32;nan
64675;BME280;51090;51.512;11.332;2023-07-30T00:55:37;98831.56;;;17.32;nan
64675;BME280;51090;51.512;11.332;2023-07-30T00:58:04;98836.34;;;17.30;nan
64675;BME280;51090;51.512;11.332;2023-07-30T01:00:30;98838.22;;;17.30;nan
64675;BME280;51090;51.512;11.332;2023-07-30T01:02:57;98834.94;;;17.28;nan
64675;BME280;51090;51.512;11.332;2023-07-30T01:05:24;98826.09;;;17.27;nan
64675;BME280;51090;51.512;11.332;2023-07-30T01:07:50;98828.78;;;17.27;nan
64675;BME280;51090;51.512;11.332;2023-07-30T01:10:16;98832.50;;;17.26;nan
64675;BME280;51090;51.512;11.332;2023-07-30T01:12:44;98825.75;;;17.24;nan
64675;BME280;51090;51.512;11.332;2023-07-30T01:15:11;98833.00;;;17.23;nan
64675;BME280;51090;51.512;11.332;2023-07-30T01:17:37;98834.56;;;17.19;nan
64675;BME280;51090;51.512;11.332;2023-07-30T01:20:04;98836.66;;;17.17;nan
64675;BME280;51090;51.512;11.332;2023-07-30T01:22:30;98827.97;;;17.10;nan
64675;BME280;51090;51.512;11.332;2023-07-30T01:24:56;98839.38;;;17.05;nan
64675;BME280;51090;51.512;11.332;2023-07-30T01:27:29;98831.53;;;16.98;nan
64675;BME280;51090;51.512;11.332;2023-07-30T01:32:32;98835.06;;;16.87;nan
64675;BME280;51090;51.512;11.332;2023-07-30T01:34:58;98836.94;;;16.87;nan
64675;BME280;51090;51.512;11.332;2023-07-30T01:37:26;98838.31;;;16.89;nan
64675;BME280;51090;51.512;11.332;2023-07-30T01:39:54;98835.63;;;16.89;nan
64675;BME280;51090;51.512;11.332;2023-07-30T01:42:20;98847.41;;;16.88;nan
64675;BME280;51090;51.512;11.332;2023-07-30T01:44:46;98838.31;;;16.89;nan
64675;BME280;51090;51.512;11.332;2023-07-30T01:47:12;98843.94;;;16.88;nan
64675;BME280;51090;51.512;11.332;2023-07-30T01:49:39;98844.75;;;16.88;nan
64675;BME280;51090;51.512;11.332;2023-07-30T01:52:05;98842.53;;;16.85;nan
64675;BME280;51090;51.512;11.332;2023-07-30T01:54:31;98843.84;;;16.83;nan
64675;BME280;51090;51.512;11.332;2023-07-30T01:56:57;98838.72;;;16.81;nan
64675;BME280;51090;51.512;11.332;2023-07-30T01:59:23;98843.25;;;16.81;nan
64675;BME280;51090;51.512;11.332;2023-07-30T02:01:49;98832.16;;;16.77;nan
64675;BME280;51090;51.512;11.332;2023-07-30T02:04:15;98849.53;;;16.74;nan
64675;BME280;51090;51.512;11.332;2023-07-30T02:06:43;98835.59;;;16.72;nan
64675;BME280;51090;51.512;11.332;2023-07-30T02:09:09;98834.19;;;16.70;nan
64675;BME280;51090;51.512;11.332;2023-07-30T02:11:35;98847.00;;;16.68;nan
64675;BME280;51090;51.512;11.332;2023-07-30T02:14:01;98846.41;;;16.66;nan
64675;BME280;51090;51.512;11.332;2023-07-30T02:16:27;98836.19;;;16.63;nan
64675;BME280;51090;51.512;11.332;2023-07-30T02:18:53;98847.38;;;16.60;nan
64675;BME280;51090;51.512;11.332;2023-07-30T02:21:19;98848.41;;;16.59;nan
64675;BME280;51090;51.512;11.332;2023-07-30T02:23:45;98849.47;;;16.58;nan
64675;BME280;51090;51.512;11.332;2023-07-30T02:26:11;98853.19;;;16.57;nan
64675;BME280;51090;51.512;11.332;2023-07-30T02:28:37;98844.25;;;16.51;nan
64675;BME280;51090;51.512;11.332;2023-07-30T02:31:03;98848.13;;;16.43;nan
64675;BME280;51090;51.512;11.332;2023-07-30T02:33:29;98846.03;;;16.33;nan
64675;BME280;51090;51.512;11.332;2023-07-30T02:35:55;98847.59;;;16.29;nan
64675;BME280;51090;51.512;11.332;2023-07-30T02:38:21;98850.00;;;16.31;nan
64675;BME280;51090;51.512;11.332;2023-07-30T02:40:47;98849.19;;;16.30;nan
64675;BME280;51090;51.512;11.332;2023-07-30T02:43:13;98839.31;;;16.31;nan
64675;BME280;51090;51.512;11.332;2023-07-30T02:45:39;98850.84;;;16.31;nan
64675;BME280;51090;51.512;11.332;2023-07-30T02:48:05;98846.53;;;16.30;nan
64675;BME280;51090;51.512;11.332;2023-07-30T02:50:32;98841.16;;;16.30;nan
64675;BME280;51090;51.512;11.332;2023-07-30T02:52:58;98841.44;;;16.29;nan
64675;BME280;51090;51.512;11.332;2023-07-30T02:55:24;98840.84;;;16.27;nan
64675;BME280;51090;51.512;11.332;2023-07-30T02:57:50;98841.53;;;16.22;nan
64675;BME280;51090;51.512;11.332;2023-07-30T03:00:16;98835.63;;;16.20;nan
64675;BME280;51090;51.512;11.332;2023-07-30T03:02:42;98841.22;;;16.19;nan
64675;BME280;51090;51.512;11.332;2023-07-30T03:05:08;98843.31;;;16.17;nan
64675;BME280;51090;51.512;11.332;2023-07-30T03:07:35;98844.59;;;16.14;nan
64675;BME280;51090;51.512;11.332;2023-07-30T03:10:01;98842.13;;;16.13;nan
64675;BME280;51090;51.512;11.332;2023-07-30T03:12:27;98841.56;;;16.10;nan
64675;BME280;51090;51.512;11.332;2023-07-30T03:14:53;98845.50;;;16.08;nan
64675;BME280;51090;51.512;11.332;2023-07-30T03:17:19;98848.44;;;16.06;nan
64675;BME280;51090;51.512;11.332;2023-07-30T03:19:46;98842.28;;;16.06;nan
64675;BME280;51090;51.512;11.332;2023-07-30T03:22:12;98848.91;;;16.03;nan
64675;BME280;51090;51.512;11.332;2023-07-30T03:24:38;98848.34;;;16.01;nan
64675;BME280;51090;51.512;11.332;2023-07-30T03:27:05;98849.34;;;16.00;nan
64675;BME280;51090;51.512;11.332;2023-07-30T03:29:31;98853.09;;;15.99;nan
64675;BME280;51090;51.512;11.332;2023-07-30T03:31:57;98854.16;;;15.98;nan
64675;BME280;51090;51.512;11.332;2023-07-30T03:34:23;98853.31;;;15.98;nan
64675;BME280;51090;51.512;11.332;2023-07-30T03:36:49;98854.84;;;15.94;nan
64675;BME280;51090;51.512;11.332;2023-07-30T03:39:15;98851.38;;;15.93;nan
64675;BME280;51090;51.512;11.332;2023-07-30T03:41:41;98867.63;;;15.92;nan
64675;BME280;51090;51.512;11.332;2023-07-30T03:44:09;98875.44;;;15.93;nan
64675;BME280;51090;51.512;11.332;2023-07-30T03:46:35;98876.25;;;15.94;nan
64675;BME280;51090;51.512;11.332;2023-07-30T03:49:01;98867.97;;;15.95;nan
64675;BME280;51090;51.512;11.332;2023-07-30T03:51:27;98874.97;;;15.96;nan
64675;BME280;51090;51.512;11.332;2023-07-30T03:53:53;98872.88;;;15.98;nan
64675;BME280;51090;51.512;11.332;2023-07-30T03:56:19;98881.44;;;16.00;nan
64675;BME280;51090;51.512;11.332;2023-07-30T03:58:46;98873.44;;;16.00;nan
64675;BME280;51090;51.512;11.332;2023-07-30T04:01:12;98876.94;;;16.01;nan
64675;BME280;51090;51.512;11.332;2023-07-30T04:03:38;98873.44;;;16.00;nan
64675;BME280;51090;51.512;11.332;2023-07-30T04:06:04;98875.41;;;16.05;nan
64675;BME280;51090;51.512;11.332;2023-07-30T04:08:30;98870.66;;;16.07;nan
64675;BME280;51090;51.512;11.332;2023-07-30T04:10:56;98879.25;;;16.09;nan
64675;BME280;51090;51.512;11.332;2023-07-30T04:13:22;98870.75;;;16.12;nan
64675;BME280;51090;51.512;11.332;2023-07-30T04:15:48;98884.81;;;16.19;nan
64675;BME280;51090;51.512;11.332;2023-07-30T04:18:15;98881.91;;;16.21;nan
64675;BME280;51090;51.512;11.332;2023-07-30T04:20:41;98887.59;;;16.24;nan
64675;BME280;51090;51.512;11.332;2023-07-30T04:23:07;98889.59;;;16.29;nan
64675;BME280;51090;51.512;11.332;2023-07-30T04:25:33;98893.66;;;16.31;nan
64675;BME280;51090;51.512;11.332;2023-07-30T04:27:59;98893.41;;;16.33;nan
64675;BME280;51090;51.512;11.332;2023-07-30T04:30:25;98892.38;;;16.34;nan
64675;BME280;51090;51.512;11.332;2023-07-30T04:32:51;98895.59;;;16.36;nan
64675;BME280;51090;51.512;11.332;2023-07-30T04:35:17;98898.28;;;16.36;nan
64675;BME280;51090;51.512;11.332;2023-07-30T04:37:43;98899.66;;;16.39;nan
64675;BME280;51090;51.512;11.332;2023-07-30T04:40:09;98903.97;;;16.40;nan
64675;BME280;51090;51.512;11.332;2023-07-30T04:42:36;98901.53;;;16.38;nan
64675;BME280;51090;51.512;11.332;2023-07-30T04:45:02;98907.94;;;16.37;nan
64675;BME280;51090;51.512;11.332;2023-07-30T04:47:28;98900.94;;;16.36;nan
64675;BME280;51090;51.512;11.332;2023-07-30T04:49:54;98909.81;;;16.37;nan
64675;BME280;51090;51.512;11.332;2023-07-30T04:52:20;98907.94;;;16.37;nan
64675;BME280;51090;51.512;11.332;2023-07-30T04:54:46;98913.03;;;16.39;nan
64675;BME280;51090;51.512;11.332;2023-07-30T04:57:12;98922.47;;;16.41;nan
64675;BME280;51090;51.512;11.332;2023-07-30T04:59:38;98917.69;;;16.43;nan
64675;BME280;51090;51.512;11.332;2023-07-30T05:02:04;98919.91;;;16.46;nan
64675;BME280;51090;51.512;11.332;2023-07-30T05:04:31;98928.03;;;16.51;nan
64675;BME280;51090;51.512;11.332;2023-07-30T05:06:57;98920.09;;;16.57;nan
64675;BME280;51090;51.512;11.332;2023-07-30T05:09:23;98924.53;;;16.63;nan
64675;BME280;51090;51.512;11.332;2023-07-30T05:11:49;98936.75;;;16.70;nan
64675;BME280;51090;51.512;11.332;2023-07-30T05:14:15;98934.53;;;16.79;nan
64675;BME280;51090;51.512;11.332;2023-07-30T05:16:41;98936.09;;;16.92;nan
64675;BME280;51090;51.512;11.332;2023-07-30T05:19:07;98931.75;;;17.03;nan
64675;BME280;51090;51.512;11.332;2023-07-30T05:21:34;98938.13;;;17.13;nan
64675;BME280;51090;51.512;11.332;2023-07-30T05:24:00;98940.16;;;17.23;nan
64675;BME280;51090;51.512;11.332;2023-07-30T05:26:26;98943.19;;;17.27;nan
64675;BME280;51090;51.512;11.332;2023-07-30T05:28:52;98932.97;;;17.40;nan
64675;BME280;51090;51.512;11.332;2023-07-30T05:31:18;98946.66;;;17.56;nan
64675;BME280;51090;51.512;11.332;2023-07-30T05:33:44;98948.53;;;17.72;nan
64675;BME280;51090;51.512;11.332;2023-07-30T05:36:10;98948.78;;;17.88;nan
64675;BME280;51090;51.512;11.332;2023-07-30T05:38:36;98954.66;;;18.01;nan
64675;BME280;51090;51.512;11.332;2023-07-30T05:41:02;98962.88;;;18.12;nan
64675;BME280;51090;51.512;11.332;2023-07-30T05:43:29;98955.28;;;18.25;nan
64675;BME280;51090;51.512;11.332;2023-07-30T05:45:55;98960.06;;;18.40;nan
64675;BME280;51090;51.512;11.332;2023-07-30T05:48:21;98953.00;;;18.56;nan
64675;BME280;51090;51.512;11.332;2023-07-30T05:50:46;98949.16;;;18.69;nan
64675;BME280;51090;51.512;11.332;2023-07-30T05:53:12;98952.56;;;18.81;nan
64675;BME280;51090;51.512;11.332;2023-07-30T05:55:38;98948.63;;;18.89;nan
64675;BME280;51090;51.512;11.332;2023-07-30T05:58:03;98956.53;;;19.01;nan
64675;BME280;51090;51.512;11.332;2023-07-30T06:00:29;98942.91;;;19.07;nan
64675;BME280;51090;51.512;11.332;2023-07-30T06:02:55;98948.50;;;19.28;nan
64675;BME280;51090;51.512;11.332;2023-07-30T06:05:21;98955.28;;;19.35;nan
64675;BME280;51090;51.512;11.332;2023-07-30T06:07:46;98949.75;;;19.47;nan
64675;BME280;51090;51.512;11.332;2023-07-30T06:10:12;98945.34;;;19.63;nan
64675;BME280;51090;51.512;11.332;2023-07-30T06:12:38;98958.47;;;19.87;nan
64675;BME280;51090;51.512;11.332;2023-07-30T06:15:06;98966.94;;;20.06;nan
64675;BME280;51090;51.512;11.332;2023-07-30T06:17:32;98967.06;;;20.26;nan
64675;BME280;51090;51.512;11.332;2023-07-30T06:19:58;98968.63;;;20.54;nan
64675;BME280;51090;51.512;11.332;2023-07-30T06:22:24;98956.31;;;20.69;nan
64675;BME280;51090;51.512;11.332;2023-07-30T06:24:49;98957.72;;;20.86;nan
64675;BME280;51090;51.512;11.332;2023-07-30T06:27:15;98971.03;;;21.19;nan
64675;BME280;51090;51.512;11.332;2023-07-30T06:29:41;98970.56;;;21.42;nan
64675;BME280;51090;51.512;11.332;2023-07-30T06:32:07;98975.97;;;21.58;nan
64675;BME280;51090;51.512;11.332;2023-07-30T06:34:33;98971.94;;;21.65;nan
64675;BME280;51090;51.512;11.332;2023-07-30T06:36:58;98960.34;;;21.65;nan
64675;BME280;51090;51.512;11.332;2023-07-30T06:39:24;98973.28;;;21.73;nan
64675;BME280;51090;51.512;11.332;2023-07-30T06:41:50;98975.72;;;21.90;nan
64675;BME280;51090;51.512;11.332;2023-07-30T06:44:16;98968.19;;;21.97;nan
64675;BME280;51090;51.512;11.332;2023-07-30T06:46:41;98962.50;;;21.99;nan
64675;BME280;51090;51.512;11.332;2023-07-30T06:49:07;98970.31;;;22.10;nan
64675;BME280;51090;51.512;11.332;2023-07-30T06:51:33;98968.16;;;22.07;nan
64675;BME280;51090;51.512;11.332;2023-07-30T06:53:58;98971.41;;;22.04;nan
64675;BME280;51090;51.512;11.332;2023-07-30T06:56:24;98985.16;;;22.18;nan
64675;BME280;51090;51.512;11.332;2023-07-30T06:58:50;98985.72;;;22.30;nan
64675;BME280;51090;51.512;11.332;2023-07-30T07:01:15;98987.88;;;22.38;nan
64675;BME280;51090;51.512;11.332;2023-07-30T07:03:41;98987.06;;;22.33;nan
64675;BME280;51090;51.512;11.332;2023-07-30T07:06:07;98985.44;;;22.37;nan
64675;BME280;51090;51.512;11.332;2023-07-30T07:08:33;98982.97;;;22.51;nan
64675;BME280;51090;51.512;11.332;2023-07-30T07:10:58;98996.41;;;22.76;nan
64675;BME280;51090;51.512;11.332;2023-07-30T07:13:24;98995.81;;;22.90;nan
64675;BME280;51090;51.512;11.332;2023-07-30T07:15:50;98987.97;;;22.88;nan
64675;BME280;51090;51.512;11.332;2023-07-30T07:18:15;98983.41;;;22.78;nan
64675;BME280;51090;51.512;11.332;2023-07-30T07:20:41;98993.41;;;22.78;nan
64675;BME280;51090;51.512;11.332;2023-07-30T07:23:07;98978.31;;;22.72;nan
64675;BME280;51090;51.512;11.332;2023-07-30T07:25:33;98977.78;;;22.70;nan
64675;BME280;51090;51.512;11.332;2023-07-30T07:27:58;98975.66;;;22.56;nan
64675;BME280;51090;51.512;11.332;2023-07-30T07:30:24;98975.94;;;22.50;nan
64675;BME280;51090;51.512;11.332;2023-07-30T07:32:50;98983.47;;;22.58;nan
64675;BME280;51090;51.512;11.332;2023-07-30T07:35:19;98992.63;;;22.72;nan
64675;BME280;51090;51.512;11.332;2023-07-30T07:37:45;98991.78;;;22.87;nan
64675;BME280;51090;51.512;11.332;2023-07-30T07:40:11;98993.84;;;23.16;nan
64675;BME280;51090;51.512;11.332;2023-07-30T07:42:38;99000.25;;;23.30;nan
64675;BME280;51090;51.512;11.332;2023-07-30T07:45:06;99007.16;;;23.52;nan
64675;BME280;51090;51.512;11.332;2023-07-30T07:47:32;99000.06;;;23.61;nan
64675;BME280;51090;51.512;11.332;2023-07-30T07:49:58;98995.75;;;23.60;nan
64675;BME280;51090;51.512;11.332;2023-07-30T07:52:23;98980.09;;;23.52;nan
64675;BME280;51090;51.512;11.332;2023-07-30T07:54:49;98985.59;;;23.41;nan
64675;BME280;51090;51.512;11.332;2023-07-30T07:57:15;98977.03;;;23.24;nan
64675;BME280;51090;51.512;11.332;2023-07-30T07:59:41;98985.81;;;22.90;nan
64675;BME280;51090;51.512;11.332;2023-07-30T08:02:13;98972.34;;;22.80;nan
64675;BME280;51090;51.512;11.332;2023-07-30T08:04:39;98964.25;;;22.70;nan
64675;BME280;51090;51.512;11.332;2023-07-30T08:07:05;98974.28;;;22.69;nan
64675;BME280;51090;51.512;11.332;2023-07-30T08:09:31;98982.09;;;22.71;nan
64675;BME280;51090;51.512;11.332;2023-07-30T08:11:58;98974.53;;;22.73;nan
64675;BME280;51090;51.512;11.332;2023-07-30T08:14:24;98985.03;;;22.85;nan
64675;BME280;51090;51.512;11.332;2023-07-30T08:16:50;98993.38;;;22.98;nan
64675;BME280;51090;51.512;11.332;2023-07-30T08:19:15;98975.78;;;23.01;nan
64675;BME280;51090;51.512;11.332;2023-07-30T08:21:41;98999.50;;;23.19;nan
64675;BME280;51090;51.512;11.332;2023-07-30T08:24:07;98991.59;;;23.33;nan
64675;BME280;51090;51.512;11.332;2023-07-30T08:26:32;98993.38;;;23.53;nan
64675;BME280;51090;51.512;11.332;2023-07-30T08:28:58;99002.72;;;23.66;nan
64675;BME280;51090;51.512;11.332;2023-07-30T08:31:24;99008.47;;;23.99;nan
64675;BME280;51090;51.512;11.332;2023-07-30T08:36:29;99020.41;;;24.85;nan
64675;BME280;51090;51.512;11.332;2023-07-30T08:38:55;98995.56;;;24.73;nan
64675;BME280;51090;51.512;11.332;2023-07-30T08:41:21;99002.28;;;24.57;nan
64675;BME280;51090;51.512;11.332;2023-07-30T08:43:46;98991.00;;;24.44;nan
64675;BME280;51090;51.512;11.332;2023-07-30T08:46:15;98994.66;;;24.29;nan
64675;BME280;51090;51.512;11.332;2023-07-30T08:48:41;98983.28;;;24.27;nan
64675;BME280;51090;51.512;11.332;2023-07-30T08:51:07;98985.03;;;24.42;nan
64675;BME280;51090;51.512;11.332;2023-07-30T08:53:33;98987.75;;;24.42;nan
64675;BME280;51090;51.512;11.332;2023-07-30T08:55:59;98977.88;;;24.27;nan
64675;BME280;51090;51.512;11.332;2023-07-30T08:58:27;98960.09;;;24.16;nan
64675;BME280;51090;51.512;11.332;2023-07-30T09:00:55;98991.00;;;24.44;nan
64675;BME280;51090;51.512;11.332;2023-07-30T09:03:24;98978.91;;;24.61;nan
64675;BME280;51090;51.512;11.332;2023-07-30T09:05:51;98994.84;;;24.67;nan
64675;BME280;51090;51.512;11.332;2023-07-30T09:08:17;98993.91;;;24.77;nan
64675;BME280;51090;51.512;11.332;2023-07-30T09:10:43;98988.06;;;24.89;nan
64675;BME280;51090;51.512;11.332;2023-07-30T09:13:09;99001.91;;;25.11;nan
64675;BME280;51090;51.512;11.332;2023-07-30T09:15:37;98984.31;;;25.28;nan
64675;BME280;51090;51.512;11.332;2023-07-30T09:18:05;98972.00;;;25.16;nan
64675;BME280;51090;51.512;11.332;2023-07-30T09:20:41;98985.66;;;25.30;nan
64675;BME280;51090;51.512;11.332;2023-07-30T09:23:09;98975.91;;;25.29;nan
64675;BME280;51090;51.512;11.332;2023-07-30T09:25:38;98986.63;;;25.39;nan
64675;BME280;51090;51.512;11.332;2023-07-30T09:28:05;98985.78;;;25.58;nan
64675;BME280;51090;51.512;11.332;2023-07-30T09:30:32;98982.88;;;25.54;nan
64675;BME280;51090;51.512;11.332;2023-07-30T09:32:59;98976.84;;;25.57;nan
64675;BME280;51090;51.512;11.332;2023-07-30T09:35:25;98983.25;;;25.67;nan
64675;BME280;51090;51.512;11.332;2023-07-30T09:37:59;98974.94;;;25.77;nan
64675;BME280;51090;51.512;11.332;2023-07-30T09:40:36;98974.34;;;25.80;nan
64675;BME280;51090;51.512;11.332;2023-07-30T09:43:06;98977.03;;;25.99;nan
64675;BME280;51090;51.512;11.332;2023-07-30T09:45:36;98976.75;;;26.00;nan
64675;BME280;51090;51.512;11.332;2023-07-30T09:48:04;98988.94;;;26.17;nan
64675;BME280;51090;51.512;11.332;2023-07-30T09:50:31;98995.09;;;26.22;nan
64675;BME280;51090;51.512;11.332;2023-07-30T09:53:00;98992.38;;;26.22;nan
64675;BME280;51090;51.512;11.332;2023-07-30T09:55:26;98991.91;;;26.20;nan
64675;BME280;51090;51.512;11.332;2023-07-30T09:57:52;99009.28;;;26.19;nan
64675;BME280;51090;51.512;11.332;2023-07-30T10:00:18;99007.59;;;26.37;nan
64675;BME280;51090;51.512;11.332;2023-07-30T10:02:47;99016.09;;;26.49;nan
64675;BME280;51090;51.512;11.332;2023-07-30T10:05:19;99000.81;;;26.54;nan
64675;BME280;51090;51.512;11.332;2023-07-30T10:07:59;98983.97;;;26.52;nan
64675;BME280;51090;51.512;11.332;2023-07-30T10:10:28;99000.72;;;26.59;nan
64675;BME280;51090;51.512;11.332;2023-07-30T10:13:00;98999.19;;;26.53;nan
64675;BME280;51090;51.512;11.332;2023-07-30T10:15:28;99003.44;;;26.73;nan
64675;BME280;51090;51.512;11.332;2023-07-30T10:17:56;98992.78;;;26.90;nan
64675;BME280;51090;51.512;11.332;2023-07-30T10:20:29;99009.13;;;27.40;nan
64675;BME280;51090;51.512;11.332;2023-07-30T10:23:00;99015.03;;;27.56;nan
64675;BME280;51090;51.512;11.332;2023-07-30T10:25:49;99006.13;;;27.42;nan
64675;BME280;51090;51.512;11.332;2023-07-30T10:31:02;99003.72;;;27.12;nan
64675;BME280;51090;51.512;11.332;2023-07-30T10:33:52;99011.84;;;27.40;nan
64675;BME280;51090;51.512;11.332;2023-07-30T10:36:30;99011.00;;;27.53;nan
64675;BME280;51090;51.512;11.332;2023-07-30T10:38:57;99014.53;;;27.54;nan
64675;BME280;51090;51.512;11.332;2023-07-30T10:41:22;98998.69;;;27.56;nan
64675;BME280;51090;51.512;11.332;2023-07-30T10:43:50;99006.13;;;27.64;nan
64675;BME280;51090;51.512;11.332;2023-07-30T10:46:18;99006.78;;;27.84;nan
64675;BME280;51090;51.512;11.332;2023-07-30T10:48:46;98998.66;;;27.70;nan
64675;BME280;51090;51.512;11.332;2023-07-30T10:51:18;98999.63;;;27.51;nan
64675;BME280;51090;51.512;11.332;2023-07-30T10:53:45;99000.06;;;27.45;nan
64675;BME280;51090;51.512;11.332;2023-07-30T10:56:12;98990.75;;;27.23;nan
64675;BME280;51090;51.512;11.332;2023-07-30T10:58:39;98994.66;;;26.89;nan
64675;BME280;51090;51.512;11.332;2023-07-30T11:01:07;98993.78;;;26.80;nan
64675;BME280;51090;51.512;11.332;2023-07-30T11:03:33;99009.47;;;26.97;nan
64675;BME280;51090;51.512;11.332;2023-07-30T11:06:00;99024.25;;;27.46;nan
64675;BME280;51090;51.512;11.332;2023-07-30T11:08:38;99010.56;;;27.38;nan
64675;BME280;51090;51.512;11.332;2023-07-30T11:11:06;99014.47;;;27.45;nan
64675;BME280;51090;51.512;11.332;2023-07-30T11:13:40;99010.25;;;27.39;nan
64675;BME280;51090;51.512;11.332;2023-07-30T11:16:08;99019.94;;;27.31;nan
64675;BME280;51090;51.512;11.332;2023-07-30T11:18:35;99004.94;;;27.06;nan
64675;BME280;51090;51.512;11.332;2023-07-30T11:21:15;99008.59;;;26.88;nan
64675;BME280;51090;51.512;11.332;2023-07-30T11:23:45;99017.44;;;26.66;nan
64675;BME280;51090;51.512;11.332;2023-07-30T11:26:19;98998.09;;;26.54;nan
64675;BME280;51090;51.512;11.332;2023-07-30T11:28:46;99017.66;;;26.69;nan
64675;BME280;51090;51.512;11.332;2023-07-30T11:31:16;98997.31;;;26.67;nan
64675;BME280;51090;51.512;11.332;2023-07-30T11:33:46;99009.78;;;26.54;nan
64675;BME280;51090;51.512;11.332;2023-07-30T11:36:16;99000.94;;;26.29;nan
64675;BME280;51090;51.512;11.332;2023-07-30T11:38:45;98996.00;;;26.18;nan
64675;BME280;51090;51.512;11.332;2023-07-30T11:41:13;99010.22;;;26.28;nan
64675;BME280;51090;51.512;11.332;2023-07-30T11:43:43;99007.78;;;26.27;nan
64675;BME280;51090;51.512;11.332;2023-07-30T11:46:18;99012.97;;;26.10;nan
64675;BME280;51090;51.512;11.332;2023-07-30T11:48:49;99033.47;;;26.02;nan
64675;BME280;51090;51.512;11.332;2023-07-30T11:51:26;99025.94;;;25.80;nan
64675;BME280;51090;51.512;11.332;2023-07-30T11:53:58;99020.97;;;25.49;nan
64675;BME280;51090;51.512;11.332;2023-07-30T11:56:29;99036.94;;;25.51;nan
64675;BME280;51090;51.512;11.332;2023-07-30T11:59:07;99024.34;;;25.41;nan
64675;BME280;51090;51.512;11.332;2023-07-30T12:01:35;99039.94;;;25.06;nan
64675;BME280;51090;51.512;11.332;2023-07-30T12:04:04;99024.72;;;24.62;nan
64675;BME280;51090;51.512;11.332;2023-07-30T12:06:42;99035.50;;;24.38;nan
64675;BME280;51090;51.512;11.332;2023-07-30T12:09:17;99032.97;;;24.18;nan
64675;BME280;51090;51.512;11.332;2023-07-30T12:11:55;99041.22;;;24.02;nan
64675;BME280;51090;51.512;11.332;2023-07-30T12:14:24;99045.38;;;23.89;nan
64675;BME280;51090;51.512;11.332;2023-07-30T12:16:56;99045.63;;;23.93;nan
64675;BME280;51090;51.512;11.332;2023-07-30T12:19:22;99053.72;;;23.98;nan
64675;BME280;51090;51.512;11.332;2023-07-30T12:21:47;99046.22;;;23.85;nan
64675;BME280;51090;51.512;11.332;2023-07-30T12:24:13;99049.19;;;23.83;nan
64675;BME280;51090;51.512;11.332;2023-07-30T12:26:39;99055.38;;;23.89;nan
64675;BME280;51090;51.512;11.332;2023-07-30T12:29:04;99056.75;;;23.86;nan
64675;BME280;51090;51.512;11.332;2023-07-30T12:31:31;99063.19;;;23.96;nan
64675;BME280;51090;51.512;11.332;2023-07-30T12:33:56;99065.66;;;24.26;nan
64675;BME280;51090;51.512;11.332;2023-07-30T12:36:22;99075.16;;;24.87;nan
64675;BME280;51090;51.512;11.332;2023-07-30T12:38:48;99087.63;;;25.36;nan
64675;BME280;51090;51.512;11.332;2023-07-30T12:41:13;99086.41;;;25.67;nan
64675;BME280;51090;51.512;11.332;2023-07-30T12:43:39;99099.06;;;25.95;nan
64675;BME280;51090;51.512;11.332;2023-07-30T12:46:05;99087.66;;;26.12;nan
64675;BME280;51090;51.512;11.332;2023-07-30T12:48:30;99092.94;;;26.22;nan
64675;BME280;51090;51.512;11.332;2023-07-30T12:50:56;99085.13;;;26.35;nan
64675;BME280;51090;51.512;11.332;2023-07-30T12:53:22;99089.81;;;26.15;nan
64675;BME280;51090;51.512;11.332;2023-07-30T12:55:47;99063.03;;;25.90;nan
64675;BME280;51090;51.512;11.332;2023-07-30T12:58:13;99045.59;;;25.34;nan
64675;BME280;51090;51.512;11.332;2023-07-30T13:00:39;99067.19;;;25.20;nan
64675;BME280;51090;51.512;11.332;2023-07-30T13:03:04;99063.25;;;25.07;nan
64675;BME280;51090;51.512;11.332;2023-07-30T13:05:30;99068.34;;;24.90;nan
64675;BME280;51090;51.512;11.332;2023-07-30T13:07:56;99063.72;;;24.90;nan
64675;BME280;51090;51.512;11.332;2023-07-30T13:10:22;99074.41;;;25.06;nan
64675;BME280;51090;51.512;11.332;2023-07-30T13:12:47;99060.25;;;25.09;nan
64675;BME280;51090;51.512;11.332;2023-07-30T13:15:13;99073.19;;;24.93;nan
64675;BME280;51090;51.512;11.332;2023-07-30T13:17:39;99045.25;;;24.68;nan